createdAt,value
2022-12-14T00:00:14.396Z,-0.60
2022-12-14T00:01:14.366Z,-0.62
2022-12-14T00:02:14.465Z,-0.60
2022-12-14T00:03:14.472Z,-0.60
2022-12-14T00:04:14.345Z,-0.60
2022-12-14T00:05:14.306Z,-0.62
2022-12-14T00:06:14.305Z,-0.62
2022-12-14T00:07:14.315Z,-0.65
2022-12-14T00:08:14.274Z,-0.63
2022-12-14T00:09:14.260Z,-0.55
2022-12-14T00:10:14.266Z,-0.54
2022-12-14T00:11:14.236Z,-0.54
2022-12-14T00:12:14.245Z,-0.50
2022-12-14T00:13:14.205Z,-0.48
2022-12-14T00:14:14.212Z,-0.48
2022-12-14T00:15:14.185Z,-0.48
2022-12-14T00:16:14.231Z,-0.47
2022-12-14T00:17:14.174Z,-0.47
2022-12-14T00:18:16.749Z,-0.44
2022-12-14T00:19:15.134Z,-0.41
2022-12-14T00:20:14.126Z,-0.41
2022-12-14T00:21:14.108Z,-0.39
2022-12-14T00:22:14.115Z,-0.37
2022-12-14T00:23:14.099Z,-0.34
2022-12-14T00:24:14.078Z,-0.33
2022-12-14T00:25:14.054Z,-0.27
2022-12-14T00:26:14.046Z,-0.29
2022-12-14T00:27:14.046Z,-0.26
2022-12-14T00:28:14.015Z,-0.29
2022-12-14T00:29:14.009Z,-0.26
2022-12-14T00:30:14.004Z,-0.23
2022-12-14T00:31:14.000Z,-0.26
2022-12-14T00:32:13.984Z,-0.23
2022-12-14T00:33:13.953Z,-0.26
2022-12-14T00:34:13.944Z,-0.26
2022-12-14T00:35:13.933Z,-0.29
2022-12-14T00:36:13.917Z,-0.27
2022-12-14T00:37:13.923Z,-0.30
2022-12-14T00:38:13.886Z,-0.27
2022-12-14T00:39:13.877Z,-0.26
2022-12-14T00:40:13.854Z,-0.26
2022-12-14T00:41:13.856Z,-0.27
2022-12-14T00:42:13.855Z,-0.24
2022-12-14T00:43:13.825Z,-0.26
2022-12-14T00:44:13.921Z,-0.24
2022-12-14T00:45:13.815Z,-0.19
2022-12-14T00:46:13.842Z,-0.22
2022-12-14T00:47:13.798Z,-0.18
2022-12-14T00:48:13.762Z,-0.18
2022-12-14T00:49:13.743Z,-0.22
2022-12-14T00:50:13.734Z,-0.19
2022-12-14T00:51:13.724Z,-0.16
2022-12-14T00:52:13.734Z,-0.18
2022-12-14T00:53:13.696Z,-0.13
2022-12-14T00:54:13.682Z,-0.11
2022-12-14T00:55:13.677Z,-0.09
2022-12-14T00:56:13.660Z,-0.09
2022-12-14T00:57:13.663Z,-0.11
2022-12-14T00:58:13.623Z,-0.11
2022-12-14T00:59:13.624Z,-0.11
2022-12-14T01:00:13.604Z,-0.11
2022-12-14T01:01:13.837Z,-0.01
2022-12-14T01:02:13.663Z,-0.05
2022-12-14T01:03:13.612Z,-0.04
2022-12-14T01:04:13.609Z,0.00
2022-12-14T01:05:13.554Z,-0.09
2022-12-14T01:06:13.528Z,-0.08
2022-12-14T01:07:13.532Z,-0.05
2022-12-14T01:08:13.494Z,-0.01
2022-12-14T01:09:13.484Z,0.02
2022-12-14T01:10:13.476Z,0.02
2022-12-14T01:11:13.462Z,0.07
2022-12-14T01:12:13.464Z,0.03
2022-12-14T01:13:13.445Z,0.07
2022-12-14T01:14:13.463Z,0.02
2022-12-14T01:15:13.406Z,0.00
2022-12-14T01:16:13.473Z,0.03
2022-12-14T01:17:13.401Z,0.02
2022-12-14T01:18:13.364Z,-0.01
2022-12-14T01:19:13.353Z,-0.01
2022-12-14T01:20:13.338Z,-0.04
2022-12-14T01:21:13.324Z,-0.04
2022-12-14T01:22:13.324Z,0.00
2022-12-14T01:23:13.305Z,-0.04
2022-12-14T01:24:13.283Z,0.02
2022-12-14T01:25:13.283Z,0.02
2022-12-14T01:26:13.265Z,0.02
2022-12-14T01:27:13.263Z,0.00
2022-12-14T01:28:13.234Z,0.00
2022-12-14T01:29:13.224Z,0.00
2022-12-14T01:30:13.205Z,-0.05
2022-12-14T01:31:13.257Z,-0.06
2022-12-14T01:32:13.198Z,-0.08
2022-12-14T01:33:13.172Z,-0.11
2022-12-14T01:34:13.155Z,-0.09
2022-12-14T01:35:13.144Z,-0.11
2022-12-14T01:36:13.124Z,-0.11
2022-12-14T01:37:13.134Z,-0.12
2022-12-14T01:38:13.104Z,-0.12
2022-12-14T01:39:13.113Z,-0.13
2022-12-14T01:40:13.072Z,-0.16
2022-12-14T01:41:13.073Z,-0.22
2022-12-14T01:42:13.065Z,-0.18
2022-12-14T01:43:13.041Z,-0.24
2022-12-14T01:44:13.026Z,-0.27
2022-12-14T01:45:13.014Z,-0.29
2022-12-14T01:46:13.055Z,-0.29
2022-12-14T01:47:13.152Z,-0.27
2022-12-14T01:48:12.976Z,-0.27
2022-12-14T01:49:12.964Z,-0.27
2022-12-14T01:50:12.952Z,-0.31
2022-12-14T01:51:12.952Z,-0.31
2022-12-14T01:52:12.923Z,-0.31
2022-12-14T01:53:12.915Z,-0.37
2022-12-14T01:54:12.893Z,-0.36
2022-12-14T01:55:12.887Z,-0.33
2022-12-14T01:56:12.897Z,-0.34
2022-12-14T01:57:12.866Z,-0.30
2022-12-14T01:58:12.843Z,-0.31
2022-12-14T01:59:12.853Z,-0.31
2022-12-14T02:00:12.825Z,-0.34
2022-12-14T02:01:12.877Z,-0.37
2022-12-14T02:02:12.864Z,-0.36
2022-12-14T02:03:12.850Z,-0.36
2022-12-14T02:04:12.760Z,-0.36
2022-12-14T02:05:12.773Z,-0.37
2022-12-14T02:06:12.747Z,-0.37
2022-12-14T02:07:12.737Z,-0.39
2022-12-14T02:08:12.705Z,-0.44
2022-12-14T02:09:12.691Z,-0.39
2022-12-14T02:10:12.682Z,-0.44
2022-12-14T02:11:12.689Z,-0.47
2022-12-14T02:12:12.662Z,-0.47
2022-12-14T02:13:12.651Z,-0.48
2022-12-14T02:14:12.623Z,-0.48
2022-12-14T02:15:12.623Z,-0.52
2022-12-14T02:16:12.692Z,-0.57
2022-12-14T02:17:12.609Z,-0.57
2022-12-14T02:18:12.581Z,-0.57
2022-12-14T02:19:12.578Z,-0.55
2022-12-14T02:20:12.552Z,-0.54
2022-12-14T02:21:12.557Z,-0.52
2022-12-14T02:22:12.545Z,-0.54
2022-12-14T02:23:12.511Z,-0.55
2022-12-14T02:24:12.493Z,-0.55
2022-12-14T02:25:12.508Z,-0.55
2022-12-14T02:26:12.481Z,-0.55
2022-12-14T02:27:12.471Z,-0.57
2022-12-14T02:28:12.441Z,-0.62
2022-12-14T02:29:12.432Z,-0.62
2022-12-14T02:30:12.422Z,-0.63
2022-12-14T02:31:12.451Z,-0.63
2022-12-14T02:32:12.421Z,-0.63
2022-12-14T02:33:12.393Z,-0.63
2022-12-14T02:34:12.364Z,-0.63
2022-12-14T02:35:12.364Z,-0.60
2022-12-14T02:36:12.344Z,-0.59
2022-12-14T02:37:12.356Z,-0.60
2022-12-14T02:38:12.315Z,-0.60
2022-12-14T02:39:12.316Z,-0.60
2022-12-14T02:40:12.296Z,-0.59
2022-12-14T02:41:12.286Z,-0.57
2022-12-14T02:42:12.284Z,-0.59
2022-12-14T02:43:12.258Z,-0.57
2022-12-14T02:44:12.246Z,-0.62
2022-12-14T02:45:12.233Z,-0.62
2022-12-14T02:46:12.290Z,-0.62
2022-12-14T02:47:12.282Z,-0.62
2022-12-14T02:48:12.205Z,-0.62
2022-12-14T02:49:12.181Z,-0.59
2022-12-14T02:50:12.173Z,-0.55
2022-12-14T02:51:12.153Z,-0.54
2022-12-14T02:52:12.152Z,-0.55
2022-12-14T02:53:12.132Z,-0.54
2022-12-14T02:54:12.114Z,-0.54
2022-12-14T02:55:12.110Z,-0.51
2022-12-14T02:56:12.089Z,-0.51
2022-12-14T02:57:12.092Z,-0.51
2022-12-14T02:58:12.058Z,-0.54
2022-12-14T02:59:12.067Z,-0.50
2022-12-14T03:00:12.033Z,-0.51
2022-12-14T03:01:12.123Z,-0.51
2022-12-14T03:02:12.153Z,-0.50
2022-12-14T03:03:12.031Z,-0.52
2022-12-14T03:04:11.983Z,-0.55
2022-12-14T03:05:11.975Z,-0.55
2022-12-14T03:06:11.963Z,-0.55
2022-12-14T03:07:11.954Z,-0.51
2022-12-14T03:08:11.963Z,-0.54
2022-12-14T03:09:11.921Z,-0.54
2022-12-14T03:10:11.916Z,-0.50
2022-12-14T03:11:11.892Z,-0.51
2022-12-14T03:12:11.874Z,-0.51
2022-12-14T03:13:11.906Z,-0.50
2022-12-14T03:14:11.852Z,-0.52
2022-12-14T03:15:11.853Z,-0.50
2022-12-14T03:16:11.857Z,-0.54
2022-12-14T03:17:15.158Z,-0.54
2022-12-14T03:18:12.812Z,-0.51
2022-12-14T03:19:11.793Z,-0.52
2022-12-14T03:20:11.772Z,-0.54
2022-12-14T03:21:11.773Z,-0.52
2022-12-14T03:22:11.754Z,-0.55
2022-12-14T03:23:11.768Z,-0.54
2022-12-14T03:24:11.733Z,-0.54
2022-12-14T03:25:11.725Z,-0.54
2022-12-14T03:26:11.699Z,-0.55
2022-12-14T03:27:11.713Z,-0.54
2022-12-14T03:28:11.693Z,-0.57
2022-12-14T03:29:11.670Z,-0.54
2022-12-14T03:30:11.650Z,-0.52
2022-12-14T03:31:11.700Z,-0.51
2022-12-14T03:32:11.632Z,-0.52
2022-12-14T03:33:11.645Z,-0.51
2022-12-14T03:34:13.380Z,-0.55
2022-12-14T03:35:11.591Z,-0.54
2022-12-14T03:36:11.588Z,-0.54
2022-12-14T03:37:11.572Z,-0.54
2022-12-14T03:38:11.561Z,-0.51
2022-12-14T03:39:11.534Z,-0.54
2022-12-14T03:40:11.520Z,-0.52
2022-12-14T03:41:11.511Z,-0.50
2022-12-14T03:42:11.503Z,-0.51
2022-12-14T03:43:11.501Z,-0.52
2022-12-14T03:44:11.471Z,-0.51
2022-12-14T03:45:11.464Z,-0.51
2022-12-14T03:46:11.531Z,-0.47
2022-12-14T03:47:11.443Z,-0.47
2022-12-14T03:48:11.430Z,-0.47
2022-12-14T03:49:11.422Z,-0.48
2022-12-14T03:50:11.426Z,-0.47
2022-12-14T03:51:11.401Z,-0.44
2022-12-14T03:52:11.381Z,-0.41
2022-12-14T03:53:11.382Z,-0.37
2022-12-14T03:54:11.342Z,-0.39
2022-12-14T03:55:11.331Z,-0.36
2022-12-14T03:56:11.321Z,-0.36
2022-12-14T03:57:11.301Z,-0.31
2022-12-14T03:58:11.323Z,-0.36
2022-12-14T03:59:11.283Z,-0.33
2022-12-14T04:00:11.262Z,-0.33
2022-12-14T04:01:11.356Z,-0.33
2022-12-14T04:02:11.354Z,-0.33
2022-12-14T04:03:11.275Z,-0.33
2022-12-14T04:04:11.222Z,-0.33
2022-12-14T04:05:11.207Z,-0.34
2022-12-14T04:06:11.186Z,-0.29
2022-12-14T04:07:11.179Z,-0.27
2022-12-14T04:08:11.167Z,-0.26
2022-12-14T04:09:11.164Z,-0.23
2022-12-14T04:11:23.705Z,-0.24
2022-12-14T04:12:21.658Z,-0.24
2022-12-14T04:13:22.588Z,-0.23
2022-12-14T04:14:20.904Z,-0.18
2022-12-14T04:15:20.895Z,-0.19
2022-12-14T04:16:20.999Z,-0.18
2022-12-14T04:17:20.867Z,-0.18
2022-12-14T04:18:20.868Z,-0.15
2022-12-14T04:19:20.855Z,-0.18
2022-12-14T04:20:20.824Z,-0.15
2022-12-14T04:21:20.818Z,-0.13
2022-12-14T04:22:20.817Z,-0.16
2022-12-14T04:23:20.806Z,-0.13
2022-12-14T04:24:20.770Z,-0.15
2022-12-14T04:25:20.760Z,-0.15
2022-12-14T04:26:20.737Z,-0.13
2022-12-14T04:27:20.726Z,-0.13
2022-12-14T04:28:20.719Z,-0.13
2022-12-14T04:29:20.717Z,-0.15
2022-12-14T04:30:20.737Z,-0.15
2022-12-14T04:31:20.700Z,-0.16
2022-12-14T04:32:20.695Z,-0.16
2022-12-14T04:33:20.647Z,-0.22
2022-12-14T04:34:20.645Z,-0.18
2022-12-14T04:35:20.686Z,-0.22
2022-12-14T04:36:20.654Z,-0.22
2022-12-14T04:37:20.797Z,-0.19
2022-12-14T04:38:20.576Z,-0.19
2022-12-14T04:39:20.598Z,-0.19
2022-12-14T04:40:20.575Z,-0.18
2022-12-14T04:41:20.546Z,-0.19
2022-12-14T04:42:20.527Z,-0.22
2022-12-14T04:43:20.524Z,-0.18
2022-12-14T04:44:20.516Z,-0.19
2022-12-14T04:45:20.497Z,-0.18
2022-12-14T04:46:20.549Z,-0.13
2022-12-14T04:47:20.466Z,-0.15
2022-12-14T04:48:20.466Z,-0.18
2022-12-14T04:49:20.463Z,-0.18
2022-12-14T04:50:20.418Z,-0.22
2022-12-14T04:51:20.411Z,-0.19
2022-12-14T04:52:20.395Z,-0.16
2022-12-14T04:53:20.396Z,-0.22
2022-12-14T04:54:20.365Z,-0.16
2022-12-14T04:55:20.355Z,-0.23
2022-12-14T04:56:20.343Z,-0.16
2022-12-14T04:57:20.335Z,-0.16
2022-12-14T04:58:20.335Z,-0.18
2022-12-14T04:59:20.304Z,-0.19
2022-12-14T05:00:20.285Z,-0.24
2022-12-14T05:01:20.508Z,-0.23
2022-12-14T05:02:20.360Z,-0.23
2022-12-14T05:03:20.274Z,-0.27
2022-12-14T05:04:20.237Z,-0.23
2022-12-14T05:05:20.234Z,-0.22
2022-12-14T05:06:20.206Z,-0.19
2022-12-14T05:07:20.195Z,-0.15
2022-12-14T05:08:20.203Z,-0.13
2022-12-14T05:09:20.164Z,-0.12
2022-12-14T05:10:20.155Z,-0.12
2022-12-14T05:11:51.976Z,-0.11
2022-12-14T05:12:21.126Z,-0.15
2022-12-14T05:13:20.136Z,-0.09
2022-12-14T05:14:20.116Z,-0.09
2022-12-14T05:15:20.096Z,-0.12
2022-12-14T05:16:20.122Z,-0.08
2022-12-14T05:17:20.117Z,-0.09
2022-12-14T05:18:20.073Z,-0.11
2022-12-14T05:19:20.042Z,-0.11
2022-12-14T05:20:20.024Z,-0.08
2022-12-14T05:21:20.015Z,-0.12
2022-12-14T05:22:19.995Z,-0.06
2022-12-14T05:23:20.004Z,-0.08
2022-12-14T05:24:19.972Z,-0.11
2022-12-14T05:25:19.955Z,-0.09
2022-12-14T05:26:19.943Z,-0.09
2022-12-14T05:27:19.934Z,-0.06
2022-12-14T05:28:19.925Z,-0.05
2022-12-14T05:29:19.907Z,-0.04
2022-12-14T05:30:19.885Z,-0.05
2022-12-14T05:31:19.883Z,-0.08
2022-12-14T05:32:19.904Z,-0.08
2022-12-14T05:33:19.897Z,-0.11
2022-12-14T05:34:19.844Z,-0.12
2022-12-14T05:35:19.832Z,-0.09
2022-12-14T05:36:19.821Z,-0.13
2022-12-14T05:37:19.795Z,-0.15
2022-12-14T05:38:19.785Z,-0.19
2022-12-14T05:39:19.795Z,-0.16
2022-12-14T05:40:19.754Z,-0.16
2022-12-14T05:41:19.782Z,-0.13
2022-12-14T05:42:19.725Z,-0.15
2022-12-14T05:43:19.723Z,-0.15
2022-12-14T05:44:19.725Z,-0.16
2022-12-14T05:45:19.694Z,-0.13
2022-12-14T05:46:19.732Z,-0.16
2022-12-14T05:47:19.670Z,-0.11
2022-12-14T05:48:19.644Z,-0.12
2022-12-14T05:49:19.663Z,-0.15
2022-12-14T05:50:19.621Z,-0.12
2022-12-14T05:51:19.614Z,-0.16
2022-12-14T05:52:19.594Z,-0.13
2022-12-14T05:53:19.585Z,-0.09
2022-12-14T05:54:19.765Z,-0.09
2022-12-14T05:55:19.569Z,-0.06
2022-12-14T05:56:19.544Z,-0.08
2022-12-14T05:57:19.533Z,-0.06
2022-12-14T05:58:19.514Z,-0.08
2022-12-14T05:59:19.536Z,-0.05
2022-12-14T06:00:19.494Z,-0.09
2022-12-14T06:01:20.035Z,-0.08
2022-12-14T06:02:19.612Z,-0.06
2022-12-14T06:03:19.455Z,-0.13
2022-12-14T06:04:19.553Z,-0.11
2022-12-14T06:05:19.424Z,-0.13
2022-12-14T06:06:19.417Z,-0.09
2022-12-14T06:07:23.134Z,-0.18
2022-12-14T06:08:20.393Z,-0.15
2022-12-14T06:09:19.394Z,-0.13
2022-12-14T06:10:19.357Z,-0.13
2022-12-14T06:11:19.343Z,-0.12
2022-12-14T06:12:19.332Z,-0.13
2022-12-14T06:13:19.325Z,-0.15
2022-12-14T06:14:19.323Z,-0.13
2022-12-14T06:15:19.314Z,-0.11
2022-12-14T06:16:19.339Z,-0.13
2022-12-14T06:17:19.273Z,-0.16
2022-12-14T06:18:19.251Z,-0.19
2022-12-14T06:19:19.270Z,-0.18
2022-12-14T06:20:19.224Z,-0.16
2022-12-14T06:21:19.213Z,-0.12
2022-12-14T06:22:19.206Z,-0.12
2022-12-14T06:23:19.185Z,-0.11
2022-12-14T06:24:19.191Z,-0.09
2022-12-14T06:25:19.153Z,-0.12
2022-12-14T06:26:19.143Z,-0.09
2022-12-14T06:27:19.138Z,-0.09
2022-12-14T06:28:19.118Z,-0.06
2022-12-14T06:29:19.132Z,-0.04
2022-12-14T06:30:19.087Z,-0.06
2022-12-14T06:31:19.205Z,-0.06
2022-12-14T06:32:19.065Z,-0.09
2022-12-14T06:33:19.552Z,-0.06
2022-12-14T06:34:21.301Z,-0.09
2022-12-14T06:35:20.024Z,-0.11
2022-12-14T06:36:19.013Z,-0.05
2022-12-14T06:37:18.993Z,-0.05
2022-12-14T06:38:18.993Z,-0.01
2022-12-14T06:39:18.971Z,-0.05
2022-12-14T06:40:18.952Z,-0.09
2022-12-14T06:41:18.942Z,-0.09
2022-12-14T06:42:18.923Z,-0.08
2022-12-14T06:43:18.933Z,-0.09
2022-12-14T06:44:18.909Z,-0.12
2022-12-14T06:45:18.896Z,-0.09
2022-12-14T06:46:18.981Z,-0.06
2022-12-14T06:47:18.864Z,-0.05
2022-12-14T06:48:18.864Z,-0.04
2022-12-14T06:49:18.845Z,-0.06
2022-12-14T06:50:18.823Z,-0.05
2022-12-14T06:51:18.815Z,-0.01
2022-12-14T06:52:21.961Z,-0.06
2022-12-14T06:53:19.795Z,-0.05
2022-12-14T06:54:18.773Z,-0.05
2022-12-14T06:55:18.753Z,-0.05
2022-12-14T06:56:18.752Z,-0.06
2022-12-14T06:57:18.731Z,-0.01
2022-12-14T06:58:18.733Z,-0.04
2022-12-14T06:59:18.714Z,-0.04
2022-12-14T07:00:18.703Z,-0.04
2022-12-14T07:01:18.780Z,-0.06
2022-12-14T07:02:18.857Z,-0.06
2022-12-14T07:03:18.720Z,-0.04
2022-12-14T07:04:18.647Z,-0.01
2022-12-14T07:05:18.633Z,0.00
2022-12-14T07:06:18.627Z,0.00
2022-12-14T07:07:18.603Z,0.00
2022-12-14T07:08:18.613Z,-0.06
2022-12-14T07:09:18.573Z,-0.06
2022-12-14T07:10:18.562Z,-0.06
2022-12-14T07:11:18.566Z,-0.05
2022-12-14T07:12:18.552Z,-0.08
2022-12-14T07:13:18.515Z,-0.08
2022-12-14T07:14:18.504Z,-0.01
2022-12-14T07:15:18.497Z,-0.06
2022-12-14T07:16:18.503Z,-0.09
2022-12-14T07:17:18.473Z,-0.13
2022-12-14T07:18:18.452Z,-0.12
2022-12-14T07:19:18.450Z,-0.13
2022-12-14T07:20:18.435Z,-0.13
2022-12-14T07:21:18.409Z,-0.15
2022-12-14T07:22:18.421Z,-0.12
2022-12-14T07:23:20.305Z,-0.12
2022-12-14T07:24:18.371Z,-0.09
2022-12-14T07:25:18.357Z,-0.12
2022-12-14T07:26:18.343Z,-0.11
2022-12-14T07:27:18.352Z,-0.08
2022-12-14T07:28:18.323Z,-0.05
2022-12-14T07:29:18.307Z,-0.04
2022-12-14T07:30:18.290Z,-0.05
2022-12-14T07:31:18.334Z,-0.06
2022-12-14T07:32:18.263Z,-0.06
2022-12-14T07:33:18.260Z,-0.05
2022-12-14T07:34:18.232Z,-0.05
2022-12-14T07:35:18.220Z,-0.04
2022-12-14T07:36:18.210Z,-0.04
2022-12-14T07:37:18.192Z,-0.05
2022-12-14T07:38:18.207Z,0.02
2022-12-14T07:39:18.164Z,0.00
2022-12-14T07:40:18.153Z,0.00
2022-12-14T07:41:22.289Z,0.02
2022-12-14T07:42:18.134Z,0.00
2022-12-14T07:43:18.126Z,0.00
2022-12-14T07:44:18.103Z,0.00
2022-12-14T07:45:18.091Z,0.05
2022-12-14T07:46:18.125Z,-0.01
2022-12-14T07:47:18.062Z,-0.04
2022-12-14T07:48:18.134Z,0.00
2022-12-14T07:49:18.032Z,0.02
2022-12-14T07:50:18.023Z,0.03
2022-12-14T07:51:18.012Z,0.00
2022-12-14T07:52:17.992Z,0.06
2022-12-14T07:53:17.992Z,0.03
2022-12-14T07:54:17.974Z,0.02
2022-12-14T07:55:17.952Z,0.07
2022-12-14T07:56:17.941Z,0.09
2022-12-14T07:57:17.922Z,0.10
2022-12-14T07:58:17.932Z,0.09
2022-12-14T07:59:17.903Z,0.06
2022-12-14T08:00:17.882Z,0.09
2022-12-14T08:01:17.922Z,0.09
2022-12-14T08:02:17.947Z,0.09
2022-12-14T08:03:17.861Z,0.10
2022-12-14T08:04:17.857Z,0.13
2022-12-14T08:05:17.811Z,0.13
2022-12-14T08:06:17.810Z,0.21
2022-12-14T08:07:17.791Z,0.15
2022-12-14T08:08:17.801Z,0.13
2022-12-14T08:09:17.762Z,0.12
2022-12-14T08:10:17.753Z,0.10
2022-12-14T08:11:17.740Z,0.09
2022-12-14T08:12:17.731Z,0.10
2022-12-14T08:13:17.731Z,0.12
2022-12-14T08:14:17.703Z,0.13
2022-12-14T08:15:17.682Z,0.06
2022-12-14T08:16:17.725Z,0.09
2022-12-14T08:17:17.662Z,0.10
2022-12-14T08:18:17.669Z,0.09
2022-12-14T08:19:17.631Z,0.15
2022-12-14T08:20:17.623Z,0.10
2022-12-14T08:21:17.610Z,0.13
2022-12-14T08:22:17.601Z,0.13
2022-12-14T08:23:17.603Z,0.12
2022-12-14T08:24:17.571Z,0.15
2022-12-14T08:25:17.562Z,0.13
2022-12-14T08:26:17.543Z,0.13
2022-12-14T08:27:17.525Z,0.10
2022-12-14T08:28:17.533Z,0.13
2022-12-14T08:29:17.508Z,0.18
2022-12-14T08:30:17.492Z,0.15
2022-12-14T08:31:17.530Z,0.12
2022-12-14T08:32:17.462Z,0.12
2022-12-14T08:33:17.462Z,0.12
2022-12-14T08:34:17.432Z,0.12
2022-12-14T08:35:17.421Z,0.12
2022-12-14T08:36:17.413Z,0.15
2022-12-14T08:37:17.398Z,0.13
2022-12-14T08:38:17.401Z,0.16
2022-12-14T08:39:17.361Z,0.21
2022-12-14T08:40:17.354Z,0.23
2022-12-14T08:41:17.342Z,0.23
2022-12-14T08:42:17.330Z,0.21
2022-12-14T08:43:21.747Z,0.25
2022-12-14T08:44:18.359Z,0.27
2022-12-14T08:45:17.283Z,0.30
2022-12-14T08:46:17.324Z,0.33
2022-12-14T08:47:17.260Z,0.34
2022-12-14T08:48:17.734Z,0.31
2022-12-14T08:49:17.231Z,0.31
2022-12-14T08:50:17.223Z,0.34
2022-12-14T08:51:17.373Z,0.36
2022-12-14T08:52:17.200Z,0.39
2022-12-14T08:53:17.202Z,0.43
2022-12-14T08:54:17.170Z,0.42
2022-12-14T08:55:18.182Z,0.36
2022-12-14T08:56:17.145Z,0.41
2022-12-14T08:57:17.131Z,0.36
2022-12-14T08:58:17.140Z,0.38
2022-12-14T08:59:43.887Z,0.42
2022-12-14T09:00:18.092Z,0.41
2022-12-14T09:01:17.170Z,0.41
2022-12-14T09:02:17.166Z,0.45
2022-12-14T09:03:17.118Z,0.46
2022-12-14T09:04:17.041Z,0.48
2022-12-14T09:05:17.024Z,0.51
2022-12-14T09:06:17.019Z,0.52
2022-12-14T09:07:17.000Z,0.51
2022-12-14T09:08:17.001Z,0.49
2022-12-14T09:09:17.076Z,0.48
2022-12-14T09:10:16.975Z,0.49
2022-12-14T09:11:16.950Z,0.49
2022-12-14T09:12:16.932Z,0.52
2022-12-14T09:13:16.939Z,0.60
2022-12-14T09:14:16.911Z,0.60
2022-12-14T09:15:16.890Z,0.62
2022-12-14T09:16:16.944Z,0.58
2022-12-14T09:17:16.868Z,0.64
2022-12-14T09:18:16.881Z,0.61
2022-12-14T09:19:16.842Z,0.62
2022-12-14T09:20:16.843Z,0.62
2022-12-14T09:21:16.819Z,0.64
2022-12-14T09:22:16.862Z,0.64
2022-12-14T09:23:16.787Z,0.58
2022-12-14T09:24:16.800Z,0.60
2022-12-14T09:25:16.769Z,0.58
2022-12-14T09:26:16.764Z,0.57
2022-12-14T09:27:16.731Z,0.53
2022-12-14T09:28:16.741Z,0.53
2022-12-14T09:29:16.711Z,0.53
2022-12-14T09:30:20.418Z,0.52
2022-12-14T09:31:17.706Z,0.60
2022-12-14T09:32:16.671Z,0.61
2022-12-14T09:33:16.672Z,0.62
2022-12-14T09:34:16.650Z,0.58
2022-12-14T09:35:16.630Z,0.60
2022-12-14T09:36:16.620Z,0.62
2022-12-14T09:37:16.618Z,0.65
2022-12-14T09:38:16.592Z,0.68
2022-12-14T09:39:16.591Z,0.75
2022-12-14T09:40:16.577Z,0.76
2022-12-14T09:41:16.549Z,0.70
2022-12-14T09:42:16.540Z,0.75
2022-12-14T09:43:16.550Z,0.76
2022-12-14T09:44:18.708Z,0.79
2022-12-14T09:45:16.490Z,0.83
2022-12-14T09:46:16.535Z,0.83
2022-12-14T09:47:16.484Z,0.80
2022-12-14T09:48:16.459Z,0.82
2022-12-14T09:49:16.465Z,0.85
2022-12-14T09:50:16.441Z,0.89
2022-12-14T09:51:16.440Z,0.94
2022-12-14T09:52:16.415Z,0.98
2022-12-14T09:53:16.398Z,1.03
2022-12-14T09:54:16.400Z,1.07
2022-12-14T09:55:16.360Z,1.08
2022-12-14T09:56:16.360Z,1.04
2022-12-14T09:57:16.345Z,1.06
2022-12-14T09:58:16.330Z,1.15
2022-12-14T09:59:16.331Z,1.21
2022-12-14T10:00:16.311Z,1.15
2022-12-14T10:01:16.408Z,1.08
2022-12-14T10:02:32.501Z,1.07
2022-12-14T10:03:17.423Z,1.08
2022-12-14T10:04:16.374Z,1.08
2022-12-14T10:05:16.230Z,1.01
2022-12-14T10:06:16.241Z,1.06
2022-12-14T10:07:16.210Z,1.00
2022-12-14T10:08:16.202Z,0.96
2022-12-14T10:09:16.259Z,0.94
2022-12-14T10:10:16.171Z,0.94
2022-12-14T10:11:23.183Z,0.96
2022-12-14T10:12:16.143Z,1.00
2022-12-14T10:13:18.872Z,1.07
2022-12-14T10:14:16.133Z,1.01
2022-12-14T10:15:16.108Z,0.98
2022-12-14T10:16:16.226Z,0.92
2022-12-14T10:17:16.163Z,0.92
2022-12-14T10:18:41.299Z,0.92
2022-12-14T10:19:17.072Z,0.89
2022-12-14T10:20:16.053Z,0.94
2022-12-14T10:21:16.027Z,1.00
2022-12-14T10:22:16.033Z,1.04
2022-12-14T10:23:22.457Z,1.07
2022-12-14T10:24:17.008Z,1.08
2022-12-14T10:25:15.976Z,1.15
2022-12-14T10:26:15.961Z,1.16
2022-12-14T10:27:15.953Z,1.16
2022-12-14T10:28:15.960Z,1.19
2022-12-14T10:29:15.943Z,1.19
2022-12-14T10:30:15.914Z,1.19
2022-12-14T10:31:15.931Z,1.14
2022-12-14T10:32:15.885Z,1.14
2022-12-14T10:33:15.870Z,1.16
2022-12-14T10:34:15.880Z,1.22
2022-12-14T10:35:15.843Z,1.21
2022-12-14T10:36:15.833Z,1.19
2022-12-14T10:37:15.815Z,1.22
2022-12-14T10:38:15.804Z,1.28
2022-12-14T10:39:15.816Z,1.32
2022-12-14T10:40:24.734Z,1.36
2022-12-14T10:41:16.763Z,1.29
2022-12-14T10:42:15.754Z,1.18
2022-12-14T10:43:15.732Z,1.14
2022-12-14T10:44:15.745Z,1.08
2022-12-14T10:45:39.588Z,1.04
2022-12-14T10:46:16.792Z,1.06
2022-12-14T10:47:15.688Z,1.07
2022-12-14T10:48:15.670Z,1.08
2022-12-14T10:49:15.694Z,1.14
2022-12-14T10:50:15.733Z,1.08
2022-12-14T10:51:15.624Z,1.08
2022-12-14T10:52:15.641Z,1.10
2022-12-14T10:53:15.607Z,1.07
2022-12-14T10:54:15.615Z,1.00
2022-12-14T10:55:15.574Z,0.98
2022-12-14T10:56:15.668Z,0.97
2022-12-14T10:57:15.550Z,1.04
2022-12-14T10:58:15.540Z,1.10
2022-12-14T10:59:15.538Z,1.15
2022-12-14T11:00:22.619Z,1.24
2022-12-14T11:01:16.636Z,1.25
2022-12-14T11:02:15.645Z,1.24
2022-12-14T11:03:15.594Z,1.22
2022-12-14T11:04:15.479Z,1.26
2022-12-14T11:05:15.446Z,1.33
2022-12-14T11:06:15.427Z,1.33
2022-12-14T11:07:15.434Z,1.39
2022-12-14T11:08:15.404Z,1.40
2022-12-14T11:09:15.405Z,1.44
2022-12-14T11:10:15.406Z,1.43
2022-12-14T11:11:18.984Z,1.47
2022-12-14T11:12:15.377Z,1.46
2022-12-14T11:13:15.363Z,1.43
2022-12-14T11:14:15.336Z,1.47
2022-12-14T11:15:15.317Z,1.46
2022-12-14T11:16:15.322Z,1.47
2022-12-14T11:17:15.423Z,1.43
2022-12-14T11:18:15.356Z,1.46
2022-12-14T11:19:15.286Z,1.44
2022-12-14T11:20:15.529Z,1.43
2022-12-14T11:21:15.245Z,1.39
2022-12-14T11:22:22.050Z,1.40
2022-12-14T11:23:16.224Z,1.40
2022-12-14T11:24:15.220Z,1.40
2022-12-14T11:25:15.175Z,1.46
2022-12-14T11:26:15.158Z,1.55
2022-12-14T11:27:15.156Z,1.58
2022-12-14T11:28:15.169Z,1.65
2022-12-14T11:29:15.125Z,1.71
2022-12-14T11:30:15.118Z,1.69
2022-12-14T11:31:15.136Z,1.62
2022-12-14T11:32:15.086Z,1.64
2022-12-14T11:33:15.087Z,1.64
2022-12-14T11:34:21.759Z,1.57
2022-12-14T11:35:16.055Z,1.62
2022-12-14T11:36:15.026Z,1.58
2022-12-14T11:37:15.019Z,1.61
2022-12-14T11:38:15.024Z,1.60
2022-12-14T11:39:15.006Z,1.65
2022-12-14T11:40:14.975Z,1.73
2022-12-14T11:41:14.966Z,1.79
2022-12-14T11:42:14.957Z,1.76
2022-12-14T11:43:14.978Z,1.78
2022-12-14T11:44:14.926Z,1.73
2022-12-14T11:45:14.918Z,1.71
2022-12-14T11:46:14.944Z,1.73
2022-12-14T11:47:14.888Z,1.65
2022-12-14T11:48:14.894Z,1.65
2022-12-14T11:49:14.856Z,1.58
2022-12-14T11:50:14.844Z,1.51
2022-12-14T11:51:14.836Z,1.46
2022-12-14T11:52:14.838Z,1.52
2022-12-14T11:53:14.827Z,1.44
2022-12-14T11:54:14.788Z,1.50
2022-12-14T11:55:14.797Z,1.47
2022-12-14T11:56:14.768Z,1.52
2022-12-14T11:57:14.760Z,1.61
2022-12-14T11:58:14.756Z,1.61
2022-12-14T11:59:14.734Z,1.57
2022-12-14T12:00:14.742Z,1.64
2022-12-14T12:01:14.780Z,1.68
2022-12-14T12:02:14.726Z,1.62
2022-12-14T12:03:14.715Z,1.52
2022-12-14T12:04:14.696Z,1.50
2022-12-14T12:05:14.656Z,1.51
2022-12-14T12:06:14.626Z,1.52
2022-12-14T12:07:14.628Z,1.57
2022-12-14T12:08:14.627Z,1.58
2022-12-14T12:09:14.602Z,1.60
2022-12-14T12:10:14.577Z,1.60
2022-12-14T12:11:14.566Z,1.68
2022-12-14T12:12:14.550Z,1.69
2022-12-14T12:13:14.565Z,1.65
2022-12-14T12:14:14.524Z,1.68
2022-12-14T12:15:14.532Z,1.71
2022-12-14T12:16:14.534Z,1.68
2022-12-14T12:17:14.489Z,1.61
2022-12-14T12:18:14.488Z,1.55
2022-12-14T12:19:14.467Z,1.50
2022-12-14T12:20:14.459Z,1.50
2022-12-14T12:21:14.428Z,1.50
2022-12-14T12:22:14.418Z,1.47
2022-12-14T12:23:14.431Z,1.46
2022-12-14T12:24:14.401Z,1.44
2022-12-14T12:25:26.737Z,1.44
2022-12-14T12:26:15.367Z,1.40
2022-12-14T12:27:14.357Z,1.40
2022-12-14T12:28:14.361Z,1.33
2022-12-14T12:29:14.327Z,1.28
2022-12-14T12:30:14.319Z,1.21
2022-12-14T12:31:14.355Z,1.16
2022-12-14T12:32:14.290Z,1.18
2022-12-14T12:33:14.291Z,1.18
2022-12-14T12:34:14.257Z,1.18
2022-12-14T12:35:14.252Z,1.16
2022-12-14T12:36:16.143Z,1.19
2022-12-14T12:37:29.479Z,1.21
2022-12-14T12:38:15.229Z,1.18
2022-12-14T12:39:14.200Z,1.21
2022-12-14T12:40:14.186Z,1.19
2022-12-14T12:41:14.169Z,1.16
2022-12-14T12:42:14.156Z,1.18
2022-12-14T12:43:14.167Z,1.18
2022-12-14T12:44:14.118Z,1.14
2022-12-14T12:45:14.116Z,1.12
2022-12-14T12:46:14.161Z,1.12
2022-12-14T12:47:41.481Z,1.15
2022-12-14T12:48:15.087Z,1.10
2022-12-14T12:49:14.067Z,1.07
2022-12-14T12:50:14.051Z,1.08
2022-12-14T12:51:14.038Z,1.07
2022-12-14T12:52:14.018Z,1.04
2022-12-14T12:53:14.028Z,1.01
2022-12-14T12:54:13.988Z,1.03
2022-12-14T12:55:14.006Z,1.01
2022-12-14T12:56:13.967Z,1.03
2022-12-14T12:57:13.963Z,1.04
2022-12-14T12:58:13.964Z,1.06
2022-12-14T12:59:13.937Z,1.07
2022-12-14T13:00:13.917Z,1.06
2022-12-14T13:01:14.070Z,1.07
2022-12-14T13:02:13.990Z,1.08
2022-12-14T13:03:13.980Z,1.12
2022-12-14T13:04:13.860Z,1.06